Time;durP1;ratioP1;P1;durP2;ratioP2;P2;SDS_P1;SDS_P2;PMS_P1;PMS_P2;Temp;Humidity;BMP_temperature;BMP_pressure;BME280_temperature;BME280_humidity;BME280_pressure;Samples;Min_cycle;Max_cycle;Signal;HPM_P1;HPM_P2
2021/07/11 00:01:43;;;;;;;12.95;10.73;;;;;;;17.45;71.04;100672.78;128975;1092;22334;-79
2021/07/11 00:04:12;;;;;;;12.58;10.08;;;;;;;17.43;70.94;100680.20;128650;1092;22338;-79
2021/07/11 00:06:42;;;;;;;12.85;10.25;;;;;;;17.39;70.98;100673.59;128966;1092;22363;-79
2021/07/11 00:09:12;;;;;;;10.68;9.50;;;;;;;17.35;71.04;100670.52;128691;1092;22783;-80
2021/07/11 00:11:42;;;;;;;12.75;9.73;;;;;;;17.32;70.75;100670.10;128749;1091;22460;-78
2021/07/11 00:14:11;;;;;;;12.08;9.90;;;;;;;17.31;70.59;100669.29;129004;1092;22347;-79
2021/07/11 00:16:41;;;;;;;11.80;10.67;;;;;;;17.28;70.96;100671.55;128997;1092;22350;-79
2021/07/11 00:19:10;;;;;;;11.28;9.13;;;;;;;17.25;70.76;100674.63;128765;1092;22354;-79
2021/07/11 00:21:40;;;;;;;10.18;8.75;;;;;;;17.21;71.04;100660.86;128982;1092;22333;-80
2021/07/11 00:24:10;;;;;;;15.43;9.63;;;;;;;17.19;71.13;100657.55;128755;1092;22350;-80
2021/07/11 00:26:39;;;;;;;11.93;9.13;;;;;;;17.17;70.88;100665.78;129013;1092;22339;-79
2021/07/11 00:29:09;;;;;;;12.35;8.95;;;;;;;17.15;70.71;100665.16;128626;1092;22357;-79
2021/07/11 00:31:38;;;;;;;12.00;10.85;;;;;;;17.14;71.04;100670.71;128706;1092;23105;-79
2021/07/11 00:34:09;;;;;;;14.55;10.68;;;;;;;17.12;71.27;100668.23;128700;1091;22335;-79
2021/07/11 00:36:40;;;;;;;13.85;10.73;;;;;;;17.06;71.13;100677.07;128712;1091;22332;-79
2021/07/11 00:39:09;;;;;;;12.08;10.53;;;;;;;17.05;71.45;100669.25;128709;1092;23059;-79
2021/07/11 00:41:42;;;;;;;12.75;10.58;;;;;;;17.05;71.59;100669.25;128664;1092;22459;-80
2021/07/11 00:44:12;;;;;;;12.43;10.25;;;;;;;17.04;71.80;100667.61;128979;1092;22334;-78
2021/07/11 00:46:46;;;;;;;13.68;10.58;;;;;;;17.01;71.80;100666.16;128690;1092;22346;-78
2021/07/11 00:49:16;;;;;;;13.08;11.18;;;;;;;17.00;71.72;100666.38;128960;1092;22328;-78
2021/07/11 00:51:46;;;;;;;13.55;11.03;;;;;;;16.99;71.85;100665.53;128555;1092;22340;-79
2021/07/11 00:54:17;;;;;;;14.48;12.65;;;;;;;16.96;71.84;100668.63;128720;1092;22350;-80
2021/07/11 00:56:47;;;;;;;12.63;11.33;;;;;;;16.92;72.48;100670.85;128849;1092;22360;-80
2021/07/11 00:59:21;;;;;;;12.98;11.63;;;;;;;16.91;72.18;100669.22;128694;1092;25088;-78
2021/07/11 01:02:07;;;;;;;13.75;11.05;;;;;;;16.90;72.03;100666.77;129037;1092;22334;-78
2021/07/11 01:05:09;;;;;;;13.30;11.47;;;;;;;16.87;72.27;100659.16;128990;1092;22473;-78
2021/07/11 01:08:19;;;;;;;14.65;10.50;;;;;;;16.85;72.56;100669.20;128198;1095;22356;-78
2021/07/11 01:10:58;;;;;;;11.95;10.38;;;;;;;16.82;72.82;100670.42;127987;1098;22440;-78
2021/07/11 01:13:31;;;;;;;11.68;10.58;;;;;;;16.82;72.35;100677.61;128003;1098;22998;-77
2021/07/11 01:16:14;;;;;;;11.98;10.78;;;;;;;16.79;72.39;100676.16;128234;1098;22544;-78
2021/07/11 01:18:46;;;;;;;10.93;9.93;;;;;;;16.79;72.63;100673.48;127990;1098;22362;-79
2021/07/11 01:21:18;;;;;;;13.35;10.80;;;;;;;16.80;72.78;100677.00;128014;1098;22353;-78
2021/07/11 01:24:20;;;;;;;12.55;10.83;;;;;;;16.79;73.08;100676.16;128047;1098;22466;-78
2021/07/11 01:26:51;;;;;;;13.83;11.43;;;;;;;16.78;72.37;100671.84;127961;1098;24231;-77
2021/07/11 01:29:23;;;;;;;16.60;11.58;;;;;;;16.76;72.58;100676.58;127957;1098;24502;-79
2021/07/11 01:31:54;;;;;;;12.57;11.07;;;;;;;16.74;72.89;100673.25;127942;1098;22447;-78
2021/07/11 01:34:25;;;;;;;13.85;10.85;;;;;;;16.71;72.70;100678.98;127944;1101;22375;-78
2021/07/11 01:36:56;;;;;;;12.40;11.10;;;;;;;16.68;73.04;100672.20;127632;1101;22407;-78
2021/07/11 01:39:27;;;;;;;14.18;11.40;;;;;;;16.67;73.00;100678.56;127444;1104;22488;-78
2021/07/11 01:41:58;;;;;;;14.43;11.73;;;;;;;16.65;72.89;100675.26;127479;1104;22388;-79
2021/07/11 01:44:28;;;;;;;;;;;;;;;16.57;72.69;100677.30;127530;1101;22375;-78
2021/07/11 01:47:00;;;;;;;15.58;10.53;;;;;;;16.51;73.31;100676.23;127921;1101;21269;-78
2021/07/11 01:49:34;;;;;;;12.95;11.38;;;;;;;16.51;73.06;100676.23;128213;1098;24183;-78
2021/07/11 01:52:05;;;;;;;15.68;12.83;;;;;;;16.51;73.54;100673.57;128091;1095;22349;-78
2021/07/11 01:54:35;;;;;;;16.05;11.90;;;;;;;16.50;73.38;100676.45;128603;1095;24973;-78
2021/07/11 01:57:05;;;;;;;19.70;12.30;;;;;;;16.49;73.48;100675.59;128346;1092;22357;-78
2021/07/11 01:59:46;;;;;;;26.80;12.13;;;;;;;16.43;73.42;100681.75;128748;1092;22350;-78
2021/07/11 02:02:26;;;;;;;13.18;11.68;;;;;;;16.40;73.47;100682.96;128653;1092;23503;-79
2021/07/11 02:05:15;;;;;;;12.53;11.28;;;;;;;16.40;73.61;100682.96;128732;1092;22319;-78
2021/07/11 02:07:46;;;;;;;14.95;12.08;;;;;;;16.41;73.91;100681.11;128684;1092;22319;-79
2021/07/11 02:10:18;;;;;;;;;;;;;;;16.37;73.53;100688.69;129023;1092;22334;-79
2021/07/11 02:13:02;;;;;;;13.07;10.97;;;;;;;16.31;74.10;100689.47;128663;1092;21250;-78
2021/07/11 02:15:37;;;;;;;17.58;11.58;;;;;;;16.32;74.10;100690.29;128745;1092;22356;-78
2021/07/11 02:18:10;;;;;;;13.78;12.35;;;;;;;16.31;73.90;100694.80;128805;1092;22625;-79
2021/07/11 02:20:48;;;;;;;14.00;11.10;;;;;;;16.33;74.18;100686.63;129070;1092;22330;-79
2021/07/11 02:23:24;;;;;;;16.45;12.23;;;;;;;16.32;74.30;100685.78;129056;1092;22332;-77
2021/07/11 02:25:55;;;;;;;12.95;11.40;;;;;;;16.32;74.10;100690.29;129006;1092;22783;-78
2021/07/11 02:28:28;;;;;;;14.18;12.03;;;;;;;16.31;73.95;100697.47;128713;1092;24985;-78
2021/07/11 02:31:05;;;;;;;13.68;11.98;;;;;;;16.31;74.51;100697.47;128516;1095;22353;-78
2021/07/11 02:33:38;;;;;;;14.75;13.25;;;;;;;16.30;74.46;100695.83;128622;1095;23733;-78
2021/07/11 02:36:27;;;;;;;15.45;13.18;;;;;;;16.31;74.29;100694.80;128241;1095;22799;-78
2021/07/11 02:39:10;;;;;;;15.55;13.45;;;;;;;16.31;74.35;100692.14;128637;1095;22354;-79
2021/07/11 02:41:52;;;;;;;17.73;14.33;;;;;;;16.31;74.56;100694.80;128556;1095;24614;-78
2021/07/11 02:44:25;;;;;;;15.45;13.95;;;;;;;16.30;74.65;100693.17;128300;1095;22362;-79
2021/07/11 02:47:00;;;;;;;15.45;13.75;;;;;;;16.31;74.56;100689.47;128311;1095;22353;-78
2021/07/11 02:49:32;;;;;;;16.55;14.73;;;;;;;16.29;74.68;100699.50;128523;1092;23269;-78
2021/07/11 02:52:08;;;;;;;15.13;13.73;;;;;;;16.29;74.61;100694.16;128738;1092;22362;-79
2021/07/11 02:54:45;;;;;;;13.63;12.33;;;;;;;16.30;74.69;100703.02;128760;1090;22331;-79
2021/07/11 02:57:23;;;;;;;16.55;15.00;;;;;;;16.28;74.58;100708.52;128685;1092;22335;-78
2021/07/11 02:59:54;;;;;;;14.50;13.13;;;;;;;16.29;74.56;100709.34;128699;1092;22331;-78
2021/07/11 03:02:27;;;;;;;16.53;14.95;;;;;;;16.27;74.55;100714.88;128691;1092;22369;-78
2021/07/11 03:04:59;;;;;;;16.30;14.83;;;;;;;16.28;74.54;100713.86;128765;1092;22334;-79
2021/07/11 03:07:30;;;;;;;;;;;;;;;16.22;74.60;100719.97;128685;1092;22348;-78
2021/07/11 03:10:00;;;;;;;14.58;13.05;;;;;;;16.19;74.94;100723.02;128651;1092;21250;-79
2021/07/11 03:12:33;;;;;;;15.05;13.55;;;;;;;16.21;74.72;100721.81;128727;1092;22333;-78
2021/07/11 03:15:05;;;;;;;15.68;14.15;;;;;;;16.22;74.91;100722.63;128735;1092;23276;-77
2021/07/11 03:17:37;;;;;;;15.48;14.08;;;;;;;16.24;75.29;100723.27;128738;1092;22340;-79
2021/07/11 03:20:12;;;;;;;15.75;14.25;;;;;;;16.24;74.91;100721.42;128258;1095;22360;-79
2021/07/11 03:22:43;;;;;;;19.05;17.15;;;;;;;16.27;75.12;100725.55;128317;1095;22350;-79
2021/07/11 03:25:14;;;;;;;18.37;16.07;;;;;;;16.30;75.21;100730.48;128334;1095;22346;-79
2021/07/11 03:27:44;;;;;;;19.83;14.73;;;;;;;16.34;75.11;100731.73;128571;1095;22351;-79
2021/07/11 03:30:18;;;;;;;17.43;15.83;;;;;;;16.37;75.45;100742.02;128302;1095;24949;-79
2021/07/11 03:32:59;;;;;;;18.90;16.90;;;;;;;16.40;75.31;100728.29;128290;1095;22801;-78
2021/07/11 03:35:43;;;;;;;18.48;16.50;;;;;;;16.43;75.36;100738.56;128280;1095;22351;-79
2021/07/11 03:38:32;;;;;;;19.67;15.17;;;;;;;16.49;75.38;100734.27;128378;1092;22349;-78
2021/07/11 03:41:04;;;;;;;17.38;15.68;;;;;;;16.54;75.29;100737.18;128658;1092;22336;-79
2021/07/11 03:43:39;;;;;;;18.40;16.48;;;;;;;16.58;75.27;100741.09;129006;1092;22780;-78
2021/07/11 03:46:10;;;;;;;19.90;17.13;;;;;;;16.63;75.06;100741.34;128726;1092;22350;-79
2021/07/11 03:49:03;;;;;;;19.03;17.20;;;;;;;16.67;75.36;100741.77;129015;1092;22353;-78
2021/07/11 03:51:39;;;;;;;18.48;16.48;;;;;;;16.73;75.12;100745.46;128760;1092;24227;-79
2021/07/11 03:54:12;;;;;;;19.53;17.50;;;;;;;16.78;75.23;100748.41;128841;1091;22346;-79
2021/07/11 03:56:45;;;;;;;17.93;16.25;;;;;;;16.83;75.18;100754.80;128645;1092;22350;-79
2021/07/11 03:59:16;;;;;;;18.80;16.90;;;;;;;16.87;74.78;100752.55;128684;1092;22332;-79
2021/07/11 04:01:47;;;;;;;18.90;16.95;;;;;;;16.91;74.86;100759.13;128696;1092;22339;-79
2021/07/11 04:04:20;;;;;;;19.35;16.68;;;;;;;16.95;74.73;100755.03;128673;1092;23907;-78
2021/07/11 04:06:53;;;;;;;18.98;17.13;;;;;;;17.02;74.62;100750.53;129013;1092;24223;-78
2021/07/11 04:09:24;;;;;;;17.88;15.58;;;;;;;17.10;74.61;100747.70;128693;1092;22342;-79
2021/07/11 04:11:54;;;;;;;18.95;17.38;;;;;;;17.18;74.43;100755.52;128810;1092;22308;-78
2021/07/11 04:14:24;;;;;;;17.68;15.88;;;;;;;17.24;74.21;100750.41;128670;1092;22357;-79
2021/07/11 04:17:08;;;;;;;19.50;17.60;;;;;;;17.27;74.09;100747.34;128703;1090;22365;-79
2021/07/11 04:19:43;;;;;;;17.70;15.83;;;;;;;17.32;73.76;100751.03;128729;1092;22339;-79
2021/07/11 04:22:16;;;;;;;17.53;15.93;;;;;;;17.41;73.56;100743.66;128645;1092;22349;-79
2021/07/11 04:24:48;;;;;;;17.58;15.80;;;;;;;17.47;73.75;100745.52;128743;1092;22346;-78
2021/07/11 04:27:18;;;;;;;;;;;;;;;17.53;73.91;100738.56;128877;1092;22449;-79
2021/07/11 04:29:51;;;;;;;16.33;14.65;;;;;;;17.59;73.60;100745.73;128672;1092;21251;-79
2021/07/11 04:32:20;;;;;;;16.18;14.03;;;;;;;17.72;73.83;100735.05;128672;1092;22354;-77
2021/07/11 04:34:50;;;;;;;19.30;15.23;;;;;;;17.85;73.26;100742.28;128735;1092;24223;-79
2021/07/11 04:37:19;;;;;;;15.08;13.68;;;;;;;17.97;72.64;100747.84;128752;1092;22337;-79
2021/07/11 04:39:49;;;;;;;15.73;14.33;;;;;;;18.05;72.57;100751.11;128698;1092;22371;-78
2021/07/11 04:42:19;;;;;;;15.15;13.65;;;;;;;18.16;72.27;100752.35;128705;1092;24960;-78
2021/07/11 04:44:49;;;;;;;15.35;13.80;;;;;;;18.24;71.83;100754.80;129018;1092;22349;-84
2021/07/11 04:47:19;;;;;;;15.08;13.45;;;;;;;18.37;72.00;100759.30;128645;1092;22969;-79
2021/07/11 04:49:48;;;;;;;16.38;14.45;;;;;;;18.45;71.88;100767.09;128735;1092;22335;-81
2021/07/11 04:52:18;;;;;;;15.75;14.25;;;;;;;18.54;71.30;100760.48;129072;1092;22347;-79
2021/07/11 04:54:49;;;;;;;15.95;13.45;;;;;;;18.62;71.15;100756.75;129039;1092;22331;-79
2021/07/11 04:57:19;;;;;;;16.90;13.88;;;;;;;18.73;71.04;100747.30;129094;1092;22772;-80
2021/07/11 04:59:49;;;;;;;17.85;14.10;;;;;;;18.88;70.92;100752.38;128929;1092;22333;-80
2021/07/11 05:02:19;;;;;;;13.83;12.60;;;;;;;19.01;70.33;100749.64;128979;1092;22304;-79
2021/07/11 05:04:49;;;;;;;12.15;11.05;;;;;;;19.16;70.20;100755.55;128957;1092;22352;-80
2021/07/11 05:07:19;;;;;;;13.55;12.13;;;;;;;19.32;69.95;100756.88;129007;1092;22331;-80
2021/07/11 05:09:48;;;;;;;11.98;10.80;;;;;;;19.48;69.59;100750.19;128898;1092;24147;-80
2021/07/11 05:12:18;;;;;;;10.65;9.28;;;;;;;19.64;68.97;100754.23;128939;1092;24168;-80
2021/07/11 05:14:48;;;;;;;10.60;9.47;;;;;;;19.81;68.54;100749.97;128738;1092;22346;-80
2021/07/11 05:17:18;;;;;;;13.58;9.38;;;;;;;20.03;68.27;100753.09;128776;1092;22345;-79
2021/07/11 05:19:47;;;;;;;11.13;8.78;;;;;;;20.25;67.75;100749.98;128658;1092;22324;-79
2021/07/11 05:22:17;;;;;;;8.88;7.85;;;;;;;20.41;66.84;100744.04;128700;1092;22350;-80
2021/07/11 05:24:46;;;;;;;12.45;8.33;;;;;;;20.61;66.62;100750.03;128574;1095;24489;-80
2021/07/11 05:27:16;;;;;;;8.60;7.53;;;;;;;20.83;65.93;100749.59;128561;1094;25143;-80
2021/07/11 05:29:46;;;;;;;14.08;8.80;;;;;;;20.98;65.09;100749.18;128290;1095;24498;-80
2021/07/11 05:32:15;;;;;;;9.58;7.58;;;;;;;21.10;64.72;100742.81;128334;1095;22444;-80
2021/07/11 05:34:45;;;;;;;10.58;8.10;;;;;;;21.27;64.05;100747.55;128600;1095;22881;-80
2021/07/11 05:37:17;;;;;;;8.00;6.93;;;;;;;21.44;63.40;100743.19;128296;1094;22347;-80
2021/07/11 05:39:47;;;;;;;9.55;7.85;;;;;;;21.67;63.29;100744.29;128551;1095;22351;-80
2021/07/11 05:42:16;;;;;;;6.73;6.10;;;;;;;21.96;62.48;100745.23;128539;1092;22351;-81
2021/07/11 05:44:46;;;;;;;7.88;5.83;;;;;;;22.22;61.55;100749.36;128987;1092;24224;-80
2021/07/11 05:47:15;;;;;;;8.05;5.68;;;;;;;22.45;60.46;100749.33;129051;1091;22348;-81
2021/07/11 05:49:45;;;;;;;6.38;5.03;;;;;;;22.74;60.11;100739.45;128798;1092;22373;-81
2021/07/11 05:52:14;;;;;;;5.83;5.23;;;;;;;23.05;58.68;100739.25;128845;1092;22354;-79
2021/07/11 05:54:44;;;;;;;6.65;4.75;;;;;;;23.38;57.98;100742.01;128695;1092;22347;-81
2021/07/11 05:57:13;;;;;;;7.25;6.55;;;;;;;23.74;57.22;100729.16;128747;1092;22346;-80
2021/07/11 05:59:43;;;;;;;7.68;5.08;;;;;;;24.11;56.50;100736.72;128708;1092;24480;-80
2021/07/11 06:02:13;;;;;;;5.25;4.38;;;;;;;24.44;55.56;100733.16;128720;1092;22702;-80
2021/07/11 06:04:43;;;;;;;7.13;4.38;;;;;;;24.64;54.18;100721.79;128688;1092;24211;-80
2021/07/11 06:07:13;;;;;;;17.78;14.25;;;;;;;25.01;53.98;100721.92;128714;1092;22343;-80
2021/07/11 06:09:43;;;;;;;4.45;4.03;;;;;;;25.34;52.38;100723.63;128654;1092;22349;-80
2021/07/11 06:12:15;;;;;;;9.85;3.88;;;;;;;25.65;51.82;100721.17;128649;1092;23097;-80
2021/07/11 06:14:45;;;;;;;5.25;4.15;;;;;;;25.96;50.67;100726.86;128599;1092;24141;-81
2021/07/11 06:17:14;;;;;;;5.03;3.23;;;;;;;26.30;49.73;100721.90;129037;1090;22331;-80
2021/07/11 06:19:44;;;;;;;3.00;2.65;;;;;;;26.49;49.03;100730.39;128684;1092;22332;-80
2021/07/11 06:22:13;;;;;;;8.73;2.90;;;;;;;26.74;47.84;100732.40;129076;1092;22344;-80
2021/07/11 06:24:43;;;;;;;3.85;3.00;;;;;;;26.95;47.83;100725.13;128737;1092;22337;-80
2021/07/11 06:27:13;;;;;;;3.80;2.90;;;;;;;27.20;46.80;100725.22;129056;1091;22331;-80
2021/07/11 06:29:42;;;;;;;3.75;2.48;;;;;;;27.33;45.69;100728.50;128644;1092;22802;-80
2021/07/11 06:32:11;;;;;;;6.30;3.55;;;;;;;27.23;45.58;100731.20;128783;1091;22357;-80
2021/07/11 06:34:41;;;;;;;7.83;2.73;;;;;;;27.25;45.69;100729.82;128708;1092;24473;-80
2021/07/11 06:37:11;;;;;;;2.93;2.43;;;;;;;27.41;45.57;100730.66;128753;1092;22354;-80
2021/07/11 06:39:40;;;;;;;4.68;2.83;;;;;;;27.45;44.38;100726.30;128747;1092;22347;-81
2021/07/11 06:42:10;;;;;;;4.23;2.50;;;;;;;27.42;44.66;100722.27;129022;1092;22331;-80
2021/07/11 06:44:39;;;;;;;4.63;2.65;;;;;;;27.55;44.68;100737.16;128697;1092;22333;-79
2021/07/11 06:47:09;;;;;;;3.95;2.90;;;;;;;27.60;44.38;100739.08;128705;1092;24472;-79
2021/07/11 06:49:38;;;;;;;5.53;2.58;;;;;;;27.83;43.96;100745.88;128737;1092;22334;-79
2021/07/11 06:52:08;;;;;;;5.35;2.63;;;;;;;27.96;42.89;100733.63;128772;1092;22327;-79
2021/07/11 06:54:38;;;;;;;5.93;2.50;;;;;;;27.86;42.37;100738.00;128358;1095;24969;-80
2021/07/11 06:57:07;;;;;;;22.15;2.68;;;;;;;27.74;42.78;100742.05;128326;1095;24509;-80
2021/07/11 06:59:37;;;;;;;4.83;2.93;;;;;;;27.86;42.56;100731.77;128291;1095;24246;-80
2021/07/11 07:02:06;;;;;;;11.50;8.98;;;;;;;28.06;42.17;100731.72;128586;1095;22366;-80
2021/07/11 07:04:36;;;;;;;3.63;2.20;;;;;;;28.10;41.39;100731.98;128550;1094;22360;-79
2021/07/11 07:07:06;;;;;;;4.25;1.70;;;;;;;28.05;41.15;100735.50;128572;1095;22343;-79
2021/07/11 07:09:35;;;;;;;2.65;1.88;;;;;;;28.03;40.99;100732.27;128286;1095;22343;-79
2021/07/11 07:12:05;;;;;;;3.18;1.60;;;;;;;28.07;41.19;100729.81;128595;1092;22340;-80
2021/07/11 07:14:35;;;;;;;4.60;1.90;;;;;;;28.20;40.54;100731.14;128645;1092;22349;-79
2021/07/11 07:17:04;;;;;;;7.70;2.10;;;;;;;28.06;40.00;100736.34;128669;1092;25001;-80
2021/07/11 07:19:34;;;;;;;1.60;1.40;;;;;;;27.83;40.41;100732.31;129001;1092;22778;-80
2021/07/11 07:22:04;;;;;;;3.83;1.85;;;;;;;27.87;40.59;100722.52;128758;1092;24481;-79
2021/07/11 07:24:33;;;;;;;3.00;1.70;;;;;;;27.84;40.32;100725.78;128622;1092;22756;-80
2021/07/11 07:27:03;;;;;;;4.40;1.95;;;;;;;27.87;40.15;100726.05;128664;1091;24467;-80
2021/07/11 07:29:33;;;;;;;5.37;1.50;;;;;;;27.98;40.80;100723.31;129033;1092;24798;-79
2021/07/11 07:32:03;;;;;;;7.35;2.20;;;;;;;28.06;40.00;100720.86;128767;1092;23277;-79
2021/07/11 07:34:33;;;;;;;2.67;1.50;;;;;;;27.99;40.56;100709.48;128723;1092;22350;-80
2021/07/11 07:37:03;;;;;;;3.53;1.73;;;;;;;28.17;39.92;100721.64;128775;1092;22353;-79
2021/07/11 07:39:33;;;;;;;2.73;1.80;;;;;;;28.04;39.74;100709.45;129007;1092;24475;-80
2021/07/11 07:42:03;;;;;;;2.03;1.43;;;;;;;28.01;39.92;100706.47;128773;1092;24475;-80
2021/07/11 07:44:33;;;;;;;3.35;1.53;;;;;;;28.04;39.51;100708.64;128683;1092;24172;-80
2021/07/11 07:47:03;;;;;;;5.25;1.53;;;;;;;28.20;39.10;100709.41;128738;1092;22323;-80
2021/07/11 07:49:33;;;;;;;4.55;1.90;;;;;;;28.26;39.22;100708.31;128774;1092;22373;-79
2021/07/11 07:52:03;;;;;;;3.40;1.40;;;;;;;28.40;38.64;100693.06;128789;1091;22332;-80
2021/07/11 07:54:33;;;;;;;2.80;1.30;;;;;;;28.52;38.92;100698.97;128802;1092;22780;-80
2021/07/11 07:57:03;;;;;;;4.25;1.73;;;;;;;28.59;38.31;100712.25;128685;1092;22385;-80
2021/07/11 07:59:32;;;;;;;4.80;1.87;;;;;;;28.51;38.44;100697.35;128756;1092;22300;-80
2021/07/11 08:02:02;;;;;;;2.85;1.38;;;;;;;28.46;38.62;100696.55;128740;1092;22337;-79
2021/07/11 08:04:32;;;;;;;7.38;1.90;;;;;;;28.49;38.45;100701.43;128763;1092;24202;-79
2021/07/11 08:07:02;;;;;;;3.00;1.85;;;;;;;28.46;38.24;100704.70;128754;1091;22359;-79
2021/07/11 08:09:32;;;;;;;2.03;1.10;;;;;;;28.40;37.89;100700.41;128753;1090;22339;-80
2021/07/11 08:12:02;;;;;;;3.60;1.48;;;;;;;28.46;38.33;100701.98;128631;1092;22354;-80
2021/07/11 08:14:31;;;;;;;9.83;1.63;;;;;;;28.54;37.86;100710.39;128760;1092;22352;-79
2021/07/11 08:17:01;;;;;;;11.63;2.33;;;;;;;28.67;38.16;100706.25;129026;1092;22347;-80
2021/07/11 08:19:31;;;;;;;5.78;1.60;;;;;;;28.72;37.60;100699.96;128704;1092;22344;-79
2021/07/11 08:22:00;;;;;;;4.53;1.40;;;;;;;28.69;37.11;100703.23;129057;1092;22355;-79
2021/07/11 08:24:34;;;;;;;3.43;1.50;;;;;;;28.52;37.43;100692.72;128813;1092;22331;-79
2021/07/11 08:27:04;;;;;;;3.53;1.70;;;;;;;28.44;38.03;100701.47;128731;1092;22330;-80
2021/07/11 08:29:34;;;;;;;5.08;1.93;;;;;;;28.58;37.80;100695.14;128760;1092;22332;-79
2021/07/11 08:32:04;;;;;;;4.80;1.50;;;;;;;28.66;37.66;100706.52;129046;1092;22331;-79
2021/07/11 08:34:34;;;;;;;15.48;1.55;;;;;;;28.69;37.42;100697.80;128799;1092;22352;-79
2021/07/11 08:37:04;;;;;;;8.40;2.00;;;;;;;28.79;37.88;100695.86;128615;1092;24635;-79
2021/07/11 08:39:38;;;;;;;4.98;1.50;;;;;;;29.00;37.13;100691.13;128779;1092;22427;-80
2021/07/11 08:42:09;;;;;;;6.45;1.63;;;;;;;29.15;36.91;100701.07;128700;1092;22391;-80
2021/07/11 08:44:38;;;;;;;6.83;1.40;;;;;;;29.15;36.78;100692.91;128707;1092;22331;-80
2021/07/11 08:47:08;;;;;;;1.88;1.20;;;;;;;29.24;36.58;100685.77;128668;1092;22787;-80
2021/07/11 08:49:38;;;;;;;2.95;1.00;;;;;;;29.42;35.98;100695.14;128734;1092;23116;-79
2021/07/11 08:52:08;;;;;;;8.60;1.30;;;;;;;29.51;35.86;100692.63;128654;1092;24948;-78
2021/07/11 08:54:37;;;;;;;1.83;1.10;;;;;;;29.72;35.99;100694.11;128740;1092;22334;-79
2021/07/11 08:57:10;;;;;;;5.20;0.97;;;;;;;29.81;34.93;100685.30;128762;1092;25013;-80
2021/07/11 08:59:42;;;;;;;5.90;1.23;;;;;;;29.75;35.37;100684.53;129029;1092;22357;-79
2021/07/11 09:02:12;;;;;;;2.40;1.20;;;;;;;29.61;35.32;100689.03;128646;1092;22339;-78
2021/07/11 09:04:47;;;;;;;5.03;0.93;;;;;;;29.59;35.71;100681.13;128989;1092;22321;-80
2021/07/11 09:07:20;;;;;;;3.80;1.20;;;;;;;29.67;35.11;100696.06;129026;1091;22354;-80
2021/07/11 09:09:57;;;;;;;4.68;1.30;;;;;;;29.74;35.45;100688.36;129019;1090;24505;-78
2021/07/11 09:12:27;;;;;;;7.33;1.10;;;;;;;29.71;35.03;100684.30;128795;1092;22332;-80
2021/07/11 09:15:01;;;;;;;2.68;1.53;;;;;;;29.41;35.62;100679.11;128724;1092;22331;-80
2021/07/11 09:17:34;;;;;;;5.53;1.27;;;;;;;29.41;35.82;100690.80;128741;1092;22334;-79
2021/07/11 09:20:07;;;;;;;4.28;1.43;;;;;;;29.41;34.96;100679.11;128697;1092;23091;-80
2021/07/11 09:22:37;;;;;;;1.95;1.28;;;;;;;29.29;35.55;100687.63;128763;1092;22820;-80
2021/07/11 09:25:07;;;;;;;4.18;1.78;;;;;;;29.20;35.78;100690.17;129054;1092;22350;-80
2021/07/11 09:27:38;;;;;;;3.15;1.05;;;;;;;29.34;35.68;100676.72;128677;1092;22341;-80
2021/07/11 09:30:17;;;;;;;9.63;1.25;;;;;;;29.55;35.87;100680.87;128714;1092;22346;-80
2021/07/11 09:32:55;;;;;;;3.70;1.10;;;;;;;29.81;34.78;100694.27;129052;1090;22334;-79
2021/07/11 09:35:27;;;;;;;4.80;1.55;;;;;;;29.62;35.31;100674.31;129004;1092;22331;-79
2021/07/11 09:37:58;;;;;;;2.08;1.20;;;;;;;29.66;35.13;100676.19;128744;1092;22356;-79
2021/07/11 09:40:30;;;;;;;4.40;1.25;;;;;;;29.96;34.69;100683.23;128649;1092;24483;-80
2021/07/11 09:43:00;;;;;;;6.65;1.35;;;;;;;30.15;33.97;100679.73;128736;1092;23096;-79
2021/07/11 09:45:33;;;;;;;5.70;1.87;;;;;;;30.04;33.59;100681.77;128996;1092;22371;-79
2021/07/11 09:48:12;;;;;;;5.50;1.60;;;;;;;29.87;34.70;100687.67;128825;1092;22388;-80
2021/07/11 09:50:42;;;;;;;5.48;1.50;;;;;;;29.86;35.10;100685.26;128738;1092;22334;-78
2021/07/11 09:53:13;;;;;;;4.75;1.13;;;;;;;29.88;34.20;100681.13;128712;1092;22331;-78
2021/07/11 09:55:42;;;;;;;;;;;;;;;29.78;33.55;100679.31;128748;1092;22404;-78
2021/07/11 09:58:11;;;;;;;6.33;1.75;;;;;;;29.64;34.75;100678.38;128953;1092;21257;-79
2021/07/11 10:00:43;;;;;;;3.55;1.40;;;;;;;29.70;35.01;100673.70;128700;1092;22331;-79
2021/07/11 10:03:15;;;;;;;4.45;1.18;;;;;;;29.80;34.46;100675.52;128737;1091;22334;-79
2021/07/11 10:05:46;;;;;;;2.53;1.20;;;;;;;29.71;34.40;100662.52;128711;1092;22622;-78
2021/07/11 10:08:16;;;;;;;3.23;1.25;;;;;;;29.85;34.65;100656.38;128697;1092;22355;-79
2021/07/11 10:10:46;;;;;;;3.37;1.20;;;;;;;30.08;34.03;100662.93;128603;1092;22344;-78
2021/07/11 10:13:15;;;;;;;3.83;0.88;;;;;;;29.96;33.85;100675.05;128725;1091;23230;-79
2021/07/11 10:15:45;;;;;;;3.93;0.95;;;;;;;29.80;34.30;100659.98;128720;1092;23894;-79
2021/07/11 10:18:17;;;;;;;1.20;0.90;;;;;;;29.60;33.90;100654.75;128710;1092;22388;-79
2021/07/11 10:20:55;;;;;;;3.05;1.00;;;;;;;29.41;34.47;100644.54;128721;1089;24475;-86
2021/07/11 10:23:33;;;;;;;2.93;0.70;;;;;;;29.25;34.70;100653.93;128775;1092;22331;-79
2021/07/11 10:26:11;;;;;;;2.88;1.10;;;;;;;29.13;35.07;100653.52;128735;1092;22331;-78
2021/07/11 10:28:44;;;;;;;4.33;1.40;;;;;;;29.09;34.75;100647.83;128711;1092;22330;-79
2021/07/11 10:31:26;;;;;;;2.38;1.08;;;;;;;28.95;35.20;100642.16;128750;1092;24135;-79
2021/07/11 10:33:57;;;;;;;3.25;1.00;;;;;;;28.85;35.36;100642.23;128964;1092;22332;-79
2021/07/11 10:36:39;;;;;;;1.65;1.00;;;;;;;28.73;35.91;100641.80;128789;1092;22352;-80
2021/07/11 10:39:12;;;;;;;2.80;1.45;;;;;;;28.86;35.60;100635.73;128698;1092;23109;-80
2021/07/11 10:41:53;;;;;;;1.35;0.75;;;;;;;28.77;35.39;100640.94;128670;1092;22387;-79
2021/07/11 10:44:26;;;;;;;3.90;2.30;;;;;;;28.59;35.28;100645.14;128724;1092;23819;-79
2021/07/11 10:46:59;;;;;;;2.28;0.98;;;;;;;28.46;35.51;100640.33;129023;1092;23312;-80
2021/07/11 10:49:34;;;;;;;1.53;1.33;;;;;;;28.41;35.79;100640.34;128742;1092;22334;-79
2021/07/11 10:52:09;;;;;;;5.07;1.00;;;;;;;28.40;35.93;100635.20;128702;1090;22327;-80
2021/07/11 10:54:53;;;;;;;3.55;1.03;;;;;;;28.29;35.96;100634.38;128722;1092;22330;-78
2021/07/11 10:57:38;;;;;;;3.93;0.85;;;;;;;28.07;36.04;100637.48;128777;1092;24223;-79
2021/07/11 11:00:21;;;;;;;1.63;0.90;;;;;;;27.87;36.73;100638.36;128703;1092;23424;-79
2021/07/11 11:02:54;;;;;;;2.95;1.28;;;;;;;27.64;37.09;100635.13;128832;1092;24170;-79
2021/07/11 11:05:25;;;;;;;2.58;0.70;;;;;;;27.56;37.87;100627.55;129018;1092;22349;-79
2021/07/11 11:08:08;;;;;;;1.85;0.80;;;;;;;27.58;37.78;100638.13;128828;1092;22628;-79
2021/07/11 11:10:40;;;;;;;3.48;1.20;;;;;;;27.49;38.00;100635.16;128716;1092;22328;-79
2021/07/11 11:13:17;;;;;;;3.33;1.60;;;;;;;27.41;37.99;100646.55;128821;1092;22395;-80
2021/07/11 11:15:55;;;;;;;5.40;1.30;;;;;;;27.24;38.45;100632.47;129041;1091;22350;-79
2021/07/11 11:18:33;;;;;;;2.10;0.90;;;;;;;27.14;38.68;100636.80;128805;1092;22331;-78
2021/07/11 11:21:19;;;;;;;4.50;1.00;;;;;;;27.11;38.68;100639.20;128788;1092;22905;-79
2021/07/11 11:23:55;;;;;;;2.77;0.87;;;;;;;27.12;39.09;100641.64;128706;1092;22353;-78
2021/07/11 11:26:28;;;;;;;1.78;0.93;;;;;;;27.17;39.03;100635.45;128741;1092;22331;-81
2021/07/11 11:29:00;;;;;;;4.85;1.18;;;;;;;27.07;38.53;100640.84;128778;1092;22326;-77
2021/07/11 11:31:33;;;;;;;2.23;0.90;;;;;;;27.02;38.69;100641.64;129032;1092;22339;-78
2021/07/11 11:34:10;;;;;;;2.28;0.88;;;;;;;26.97;38.61;100636.23;128762;1089;24499;-77
2021/07/11 11:36:44;;;;;;;2.05;1.00;;;;;;;26.87;38.65;100634.31;128742;1092;24995;-78